Terminal Aerodrome Forecast
Issued by NWS Wilmington, OH

Current Version | Previous Version | Text Only | Print | Product List | Glossary Off
Versions: 1 2 3 4 5 6 7 8 9 10 11 12 13 14 15 16 17 18 19 20 21 22 23 24 25

000
FTUS41 KILN 290300 AAA
TAFCMH
TAF AMD
KCMH 290351Z 2904/2924 13008KT P6SM FEW200 OVC250
     FM291200 15009KT P6SM VCSH SCT025 BKN060 OVC120
      TEMPO 2912/2914 4SM -FZRA OVC025
     FM291500 19011G20KT P6SM -RA SCT025 OVC040
     FM291700 20013G21KT 4SM -RA BR SCT010 OVC025
     FM292000 25017G27KT P6SM VCSH OVC025=

USA.gov is the U.S. government's official web portal to all federal, state and local government web resources and services.